Sidell, Florida
Current Conditions -  °F | °C
As of 8:53 PM on Friday 19 Dec 2014 (Local Time) from KPGD Reporting Station
Clear Clear  
Wind Chill: 14°   Ceiling: Unl
Heat Index: 14°   Visibility: 10mi
Dew Point:   Wind: 3mph
Humidity: 67%   Direction: 110°ESE
Pressure: 30.09"   Gusts: NA
Location:  27.215°N, 81.8567°W
Report Text: KPGD 200153Z AUTO 11003KT 10SM CLR 14/08 A3009 RMK AO2 SLP190 T01390078
Loading
Personal Weather Stations






























Interactive Weather Map New forecast layout! Learn more

10-Day Weather Forecast

Advertisements
Track Severe Weather on mobile